Amsterdam-Zuidoost, Netherlands
Current Conditions -  °F | °C
As of 9:25 AM on Thursday 29 Jan 2015 (Local Time) from EHAM Reporting Station
Rain Showers Rain Showers  
Wind Chill: 28°   Ceiling: Unl
Heat Index: 39°   Visibility: 6mi
Dew Point: 30°   Wind: 24mph
Humidity: 70%   Direction: 250°WSW
Pressure: 29.12"   Gusts: 36mph
Location:  52.31°N, 4.97°E
Report Text: EHAM 290825Z 25021G31KT 220V280 9999 VCSH FEW025CB FEW028TCU04/M01 Q0986 TEMPO 7000 -SHRAGS
Loading
Personal Weather Stations






























Interactive Weather Map New forecast layout! Learn more

10-Day Weather Forecast

Advertisements
Track Severe Weather on mobile